createdAt,value
2023-02-19T00:01:33.312Z,100.00
2023-02-19T00:04:02.248Z,100.00
2023-02-19T00:06:30.798Z,100.00
2023-02-19T00:08:57.437Z,100.00
2023-02-19T00:11:26.961Z,100.00
2023-02-19T00:13:55.544Z,100.00
2023-02-19T00:16:27.720Z,100.00
2023-02-19T00:18:55.806Z,100.00
2023-02-19T00:21:22.603Z,100.00
2023-02-19T00:23:54.108Z,100.00
2023-02-19T00:26:21.466Z,100.00
2023-02-19T00:28:48.870Z,100.00
2023-02-19T00:31:15.381Z,100.00
2023-02-19T00:33:42.139Z,100.00
2023-02-19T00:36:08.687Z,100.00
2023-02-19T00:38:40.494Z,100.00
2023-02-19T00:41:19.823Z,100.00
2023-02-19T00:43:49.220Z,100.00
2023-02-19T00:46:17.915Z,100.00
2023-02-19T00:48:44.807Z,100.00
2023-02-19T00:51:11.872Z,100.00
2023-02-19T00:53:38.601Z,100.00
2023-02-19T00:56:06.605Z,100.00
2023-02-19T00:58:33.251Z,100.00
2023-02-19T01:00:59.794Z,100.00
2023-02-19T01:03:26.325Z,100.00
2023-02-19T01:05:53.219Z,100.00
2023-02-19T01:08:19.774Z,100.00
2023-02-19T01:10:47.305Z,100.00
2023-02-19T01:13:14.260Z,100.00
2023-02-19T01:15:40.689Z,100.00
2023-02-19T01:18:07.390Z,100.00
2023-02-19T01:20:33.906Z,100.00
2023-02-19T01:23:00.355Z,100.00
2023-02-19T01:25:26.769Z,100.00
2023-02-19T01:27:53.224Z,100.00
2023-02-19T01:30:19.672Z,100.00
2023-02-19T01:32:46.101Z,100.00
2023-02-19T01:35:12.492Z,100.00
2023-02-19T01:37:38.905Z,100.00
2023-02-19T01:40:05.792Z,100.00
2023-02-19T01:42:32.379Z,100.00
2023-02-19T01:45:22.270Z,100.00
2023-02-19T01:47:57.453Z,100.00
2023-02-19T01:50:28.163Z,100.00
2023-02-19T01:52:55.462Z,100.00
2023-02-19T01:55:22.496Z,100.00
2023-02-19T01:57:53.479Z,100.00
2023-02-19T02:00:20.045Z,100.00
2023-02-19T02:02:51.466Z,100.00
2023-02-19T02:05:28.834Z,100.00
2023-02-19T02:08:13.858Z,100.00
2023-02-19T02:10:40.404Z,100.00
2023-02-19T02:13:06.819Z,100.00
2023-02-19T02:15:52.381Z,100.00
2023-02-19T02:18:37.985Z,100.00
2023-02-19T02:21:32.466Z,100.00
2023-02-19T02:24:19.440Z,100.00
2023-02-19T02:26:57.630Z,100.00
2023-02-19T02:29:55.884Z,100.00
2023-02-19T02:32:30.892Z,100.00
2023-02-19T02:35:07.454Z,100.00
2023-02-19T02:37:37.303Z,100.00
2023-02-19T02:40:05.493Z,100.00
2023-02-19T02:42:34.533Z,100.00
2023-02-19T02:45:35.200Z,100.00
2023-02-19T02:48:19.877Z,100.00
2023-02-19T02:50:58.543Z,100.00
2023-02-19T02:54:07.257Z,100.00
2023-02-19T02:56:34.874Z,100.00
2023-02-19T02:59:03.946Z,100.00
2023-02-19T03:01:59.085Z,100.00
2023-02-19T03:04:35.088Z,100.00
2023-02-19T03:07:08.118Z,100.00
2023-02-19T03:09:42.054Z,100.00
2023-02-19T03:12:37.889Z,100.00
2023-02-19T03:15:28.139Z,100.00
2023-02-19T03:18:21.479Z,100.00
2023-02-19T03:20:52.770Z,100.00
2023-02-19T03:23:42.538Z,100.00
2023-02-19T03:26:10.536Z,100.00
2023-02-19T03:28:59.360Z,100.00
2023-02-19T03:31:29.855Z,100.00
2023-02-19T03:34:00.906Z,100.00
2023-02-19T03:36:40.427Z,100.00
2023-02-19T03:39:10.836Z,100.00
2023-02-19T03:41:55.559Z,100.00
2023-02-19T03:44:31.279Z,100.00
2023-02-19T03:47:07.420Z,100.00
2023-02-19T03:49:44.507Z,100.00
2023-02-19T03:52:20.467Z,100.00
2023-02-19T03:55:10.926Z,100.00
2023-02-19T03:58:05.872Z,100.00
2023-02-19T04:00:57.264Z,100.00
2023-02-19T04:03:40.546Z,100.00
2023-02-19T04:06:15.149Z,100.00
2023-02-19T04:08:47.276Z,100.00
2023-02-19T04:11:16.062Z,100.00
2023-02-19T04:13:59.920Z,100.00
2023-02-19T04:16:29.320Z,100.00
2023-02-19T04:19:02.677Z,100.00
2023-02-19T04:21:31.038Z,100.00
2023-02-19T04:24:03.166Z,100.00
2023-02-19T04:26:31.300Z,100.00
2023-02-19T04:28:57.716Z,100.00
2023-02-19T04:31:26.733Z,100.00
2023-02-19T04:33:53.188Z,100.00
2023-02-19T04:36:19.612Z,100.00
2023-02-19T04:38:46.030Z,100.00
2023-02-19T04:41:12.788Z,100.00
2023-02-19T04:43:39.472Z,100.00
2023-02-19T04:46:05.950Z,100.00
2023-02-19T04:48:32.431Z,100.00
2023-02-19T04:50:58.878Z,100.00
2023-02-19T04:53:25.347Z,100.00
2023-02-19T04:55:53.350Z,100.00
2023-02-19T04:58:20.637Z,100.00
2023-02-19T05:00:47.139Z,100.00
2023-02-19T05:03:13.649Z,100.00
2023-02-19T05:05:40.014Z,100.00
2023-02-19T05:08:06.456Z,100.00
2023-02-19T05:10:33.607Z,100.00
2023-02-19T05:13:00.050Z,100.00
2023-02-19T05:15:26.516Z,100.00
2023-02-19T05:17:52.922Z,100.00
2023-02-19T05:20:19.524Z,100.00
2023-02-19T05:22:45.896Z,100.00
2023-02-19T05:25:12.300Z,100.00
2023-02-19T05:27:38.738Z,100.00
2023-02-19T05:30:05.556Z,100.00
2023-02-19T05:32:32.075Z,100.00
2023-02-19T05:34:58.498Z,100.00
2023-02-19T05:37:24.873Z,100.00
2023-02-19T05:39:51.280Z,100.00
2023-02-19T05:42:17.729Z,100.00
2023-02-19T05:44:44.475Z,100.00
2023-02-19T05:47:11.204Z,100.00
2023-02-19T05:49:37.697Z,100.00
2023-02-19T05:52:04.423Z,100.00
2023-02-19T05:54:31.595Z,100.00
2023-02-19T05:56:58.183Z,100.00
2023-02-19T05:59:27.683Z,100.00
2023-02-19T06:01:54.978Z,100.00
2023-02-19T06:04:22.055Z,100.00
2023-02-19T06:06:48.614Z,100.00
2023-02-19T06:09:15.142Z,100.00
2023-02-19T06:11:43.282Z,100.00
2023-02-19T06:14:13.306Z,100.00
2023-02-19T06:16:39.755Z,100.00
2023-02-19T06:19:06.270Z,100.00
2023-02-19T06:21:32.686Z,100.00
2023-02-19T06:23:59.180Z,100.00
2023-02-19T06:26:25.912Z,100.00
2023-02-19T06:28:53.370Z,100.00
2023-02-19T06:31:21.434Z,100.00
2023-02-19T06:33:48.080Z,100.00
2023-02-19T06:36:17.312Z,100.00
2023-02-19T06:38:44.016Z,100.00
2023-02-19T06:41:11.646Z,100.00
2023-02-19T06:43:38.366Z,100.00
2023-02-19T06:46:06.503Z,100.00
2023-02-19T06:48:34.026Z,100.00
2023-02-19T06:51:00.538Z,100.00
2023-02-19T06:53:27.577Z,100.00
2023-02-19T06:55:58.282Z,100.00
2023-02-19T06:58:24.861Z,100.00
2023-02-19T07:00:51.811Z,100.00
2023-02-19T07:03:18.389Z,100.00
2023-02-19T07:05:44.897Z,100.00
2023-02-19T07:08:11.758Z,100.00
2023-02-19T07:10:38.166Z,100.00
2023-02-19T07:13:04.931Z,100.00
2023-02-19T07:15:31.400Z,100.00
2023-02-19T07:17:58.943Z,100.00
2023-02-19T07:20:25.398Z,100.00
2023-02-19T07:22:51.779Z,100.00
2023-02-19T07:25:18.198Z,100.00
2023-02-19T07:27:44.580Z,100.00
2023-02-19T07:30:11.259Z,100.00
2023-02-19T07:32:41.734Z,100.00
2023-02-19T07:35:08.547Z,100.00
2023-02-19T07:37:35.066Z,100.00
2023-02-19T07:40:01.708Z,100.00
2023-02-19T07:42:28.174Z,100.00
2023-02-19T07:44:54.548Z,100.00
2023-02-19T07:47:21.065Z,100.00
2023-02-19T07:49:47.466Z,100.00
2023-02-19T07:52:14.045Z,100.00
2023-02-19T07:54:40.466Z,100.00
2023-02-19T07:57:06.932Z,100.00
2023-02-19T07:59:34.551Z,100.00
2023-02-19T08:02:19.601Z,100.00
2023-02-19T08:04:47.735Z,100.00
2023-02-19T08:07:14.140Z,100.00
2023-02-19T08:09:40.550Z,100.00
2023-02-19T08:12:29.562Z,100.00
2023-02-19T08:14:55.960Z,100.00
2023-02-19T08:17:22.383Z,100.00
2023-02-19T08:19:48.793Z,100.00
2023-02-19T08:22:16.293Z,100.00
2023-02-19T08:24:44.964Z,100.00
2023-02-19T08:27:11.403Z,100.00
2023-02-19T08:29:38.029Z,100.00
2023-02-19T08:32:04.668Z,100.00
2023-02-19T08:34:31.164Z,100.00
2023-02-19T08:36:57.643Z,100.00
2023-02-19T08:39:24.178Z,100.00
2023-02-19T08:41:50.704Z,100.00
2023-02-19T08:44:17.102Z,100.00
2023-02-19T08:46:43.475Z,100.00
2023-02-19T08:49:09.915Z,100.00
2023-02-19T08:51:36.334Z,100.00
2023-02-19T08:54:04.320Z,100.00
2023-02-19T08:56:30.798Z,100.00
2023-02-19T08:58:57.183Z,100.00
2023-02-19T09:01:23.916Z,100.00
2023-02-19T09:03:50.402Z,100.00
2023-02-19T09:06:19.189Z,100.00
2023-02-19T09:08:45.863Z,100.00
2023-02-19T09:11:12.815Z,100.00
2023-02-19T09:13:39.598Z,100.00
2023-02-19T09:16:06.302Z,100.00
2023-02-19T09:18:38.890Z,100.00
2023-02-19T09:21:06.539Z,100.00
2023-02-19T09:23:35.217Z,100.00
2023-02-19T09:26:06.587Z,100.00
2023-02-19T09:28:33.533Z,100.00
2023-02-19T09:31:07.990Z,100.00
2023-02-19T09:33:34.494Z,100.00
2023-02-19T09:36:01.634Z,100.00
2023-02-19T09:38:29.375Z,100.00
2023-02-19T09:40:57.777Z,100.00
2023-02-19T09:43:27.782Z,100.00
2023-02-19T09:46:03.366Z,100.00
2023-02-19T09:48:30.229Z,100.00
2023-02-19T09:50:59.306Z,100.00
2023-02-19T09:53:29.969Z,100.00
2023-02-19T09:55:56.762Z,100.00
2023-02-19T09:58:34.028Z,100.00
2023-02-19T10:01:01.716Z,100.00
2023-02-19T10:03:33.650Z,100.00
2023-02-19T10:06:05.383Z,100.00
2023-02-19T10:08:34.298Z,100.00
2023-02-19T10:11:03.435Z,100.00
2023-02-19T10:13:34.542Z,100.00
2023-02-19T10:16:03.803Z,100.00
2023-02-19T10:18:38.307Z,100.00
2023-02-19T10:21:05.604Z,100.00
2023-02-19T10:23:32.424Z,100.00
2023-02-19T10:26:00.185Z,100.00
2023-02-19T10:28:33.560Z,100.00
2023-02-19T10:31:06.358Z,100.00
2023-02-19T10:33:32.790Z,100.00
2023-02-19T10:36:07.596Z,100.00
2023-02-19T10:38:40.278Z,100.00
2023-02-19T10:41:13.774Z,100.00
2023-02-19T10:43:43.902Z,100.00
2023-02-19T10:46:27.813Z,100.00
2023-02-19T10:49:02.546Z,100.00
2023-02-19T10:51:36.193Z,100.00
2023-02-19T10:54:04.378Z,100.00
2023-02-19T10:56:31.510Z,100.00
2023-02-19T10:59:14.205Z,100.00
2023-02-19T11:01:55.041Z,100.00
2023-02-19T11:04:22.309Z,100.00
2023-02-19T11:06:48.938Z,100.00
2023-02-19T11:09:34.762Z,100.00
2023-02-19T11:12:01.813Z,100.00
2023-02-19T11:14:30.585Z,100.00
2023-02-19T11:16:59.211Z,100.00
2023-02-19T11:19:31.683Z,100.00
2023-02-19T11:22:00.259Z,100.00
2023-02-19T11:24:40.474Z,100.00
2023-02-19T11:27:16.941Z,100.00
2023-02-19T11:29:43.420Z,100.00
2023-02-19T11:32:29.137Z,100.00
2023-02-19T11:35:14.587Z,100.00
2023-02-19T11:37:58.849Z,100.00
2023-02-19T11:40:45.948Z,100.00
2023-02-19T11:43:33.719Z,100.00
2023-02-19T11:46:21.948Z,100.00
2023-02-19T11:49:05.585Z,100.00
2023-02-19T11:51:41.537Z,100.00
2023-02-19T11:54:17.797Z,100.00
2023-02-19T11:56:47.569Z,100.00
2023-02-19T11:59:28.358Z,100.00
2023-02-19T12:02:34.830Z,100.00
2023-02-19T12:05:26.902Z,100.00
2023-02-19T12:08:14.881Z,100.00
2023-02-19T12:11:12.052Z,100.00
2023-02-19T12:13:47.543Z,100.00
2023-02-19T12:16:26.223Z,100.00
2023-02-19T12:19:20.067Z,100.00
2023-02-19T12:22:03.073Z,100.00
2023-02-19T12:24:38.285Z,100.00
2023-02-19T12:27:41.978Z,100.00
2023-02-19T12:30:20.598Z,100.00
2023-02-19T12:32:55.480Z,100.00
2023-02-19T12:35:26.261Z,100.00
2023-02-19T12:37:58.620Z,100.00
2023-02-19T12:40:37.054Z,100.00
2023-02-19T12:43:20.256Z,100.00
2023-02-19T12:45:52.808Z,100.00
2023-02-19T12:48:32.598Z,100.00
2023-02-19T12:51:06.981Z,100.00
2023-02-19T12:53:44.197Z,100.00
2023-02-19T12:56:14.222Z,100.00
2023-02-19T12:58:48.109Z,100.00
2023-02-19T13:01:21.982Z,100.00
2023-02-19T13:03:59.390Z,100.00
2023-02-19T13:06:40.535Z,100.00
2023-02-19T13:09:15.484Z,100.00
2023-02-19T13:12:07.187Z,100.00
2023-02-19T13:14:39.156Z,100.00
2023-02-19T13:17:20.976Z,100.00
2023-02-19T13:19:50.522Z,100.00
2023-02-19T13:22:49.764Z,100.00
2023-02-19T13:25:17.909Z,100.00
2023-02-19T13:28:26.209Z,100.00
2023-02-19T13:31:25.057Z,100.00
2023-02-19T13:34:33.247Z,100.00
2023-02-19T13:37:00.760Z,100.00
2023-02-19T13:39:28.547Z,100.00
2023-02-19T13:42:01.161Z,100.00
2023-02-19T13:44:31.160Z,100.00
2023-02-19T13:46:58.322Z,100.00
2023-02-19T13:49:27.793Z,100.00
2023-02-19T13:51:56.061Z,100.00
2023-02-19T13:54:27.001Z,100.00
2023-02-19T13:57:19.744Z,100.00
2023-02-19T13:59:46.700Z,100.00
2023-02-19T14:02:35.046Z,100.00
2023-02-19T14:05:11.535Z,100.00
2023-02-19T14:07:53.467Z,100.00
2023-02-19T14:10:50.824Z,100.00
2023-02-19T14:13:52.182Z,100.00
2023-02-19T14:16:39.783Z,100.00
2023-02-19T14:19:41.665Z,100.00
2023-02-19T14:23:05.667Z,100.00
2023-02-19T14:26:04.175Z,100.00
2023-02-19T14:28:36.214Z,100.00
2023-02-19T14:31:31.421Z,100.00
2023-02-19T14:34:04.923Z,100.00
2023-02-19T14:36:33.927Z,100.00
2023-02-19T14:39:13.595Z,100.00
2023-02-19T14:41:43.264Z,100.00
2023-02-19T14:44:17.997Z,100.00
2023-02-19T14:46:49.073Z,100.00
2023-02-19T14:49:25.171Z,100.00
2023-02-19T14:51:56.657Z,100.00
2023-02-19T14:54:41.866Z,100.00
2023-02-19T14:57:17.984Z,100.00
2023-02-19T14:59:58.745Z,100.00
2023-02-19T15:02:26.479Z,100.00
2023-02-19T15:04:53.725Z,100.00
2023-02-19T15:07:24.568Z,99.93
2023-02-19T15:09:57.015Z,99.54
2023-02-19T15:12:26.523Z,99.95
2023-02-19T15:15:01.403Z,99.85
2023-02-19T15:17:34.325Z,99.62
2023-02-19T15:20:05.455Z,99.80
2023-02-19T15:22:32.634Z,100.00
2023-02-19T15:25:03.694Z,100.00
2023-02-19T15:27:30.923Z,99.87
2023-02-19T15:29:57.371Z,100.00
2023-02-19T15:32:26.768Z,100.00
2023-02-19T15:34:58.868Z,100.00
2023-02-19T15:37:28.321Z,100.00
2023-02-19T15:39:56.533Z,100.00
2023-02-19T15:42:25.815Z,100.00
2023-02-19T15:45:01.162Z,100.00
2023-02-19T15:47:49.614Z,100.00
2023-02-19T15:50:21.218Z,100.00
2023-02-19T15:52:59.615Z,100.00
2023-02-19T15:55:29.019Z,100.00
2023-02-19T15:58:01.109Z,100.00
2023-02-19T16:00:46.158Z,100.00
2023-02-19T16:03:20.418Z,100.00
2023-02-19T16:06:01.907Z,100.00
2023-02-19T16:08:34.013Z,100.00
2023-02-19T16:11:03.426Z,100.00
2023-02-19T16:13:32.599Z,100.00
2023-02-19T16:16:23.687Z,100.00
2023-02-19T16:18:52.111Z,100.00
2023-02-19T16:21:22.878Z,100.00
2023-02-19T16:23:54.679Z,100.00
2023-02-19T16:26:21.877Z,100.00
2023-02-19T16:28:55.241Z,100.00
2023-02-19T16:31:23.647Z,100.00
2023-02-19T16:33:51.311Z,100.00
2023-02-19T16:36:29.969Z,100.00
2023-02-19T16:39:00.088Z,100.00
2023-02-19T16:41:26.772Z,100.00
2023-02-19T16:43:53.315Z,100.00
2023-02-19T16:46:20.013Z,100.00
2023-02-19T16:48:47.027Z,100.00
2023-02-19T16:51:26.222Z,100.00
2023-02-19T16:53:52.794Z,100.00
2023-02-19T16:56:22.838Z,100.00
2023-02-19T16:58:50.152Z,100.00
2023-02-19T17:01:17.203Z,100.00
2023-02-19T17:03:45.052Z,100.00
2023-02-19T17:06:12.346Z,100.00
2023-02-19T17:08:42.386Z,100.00
2023-02-19T17:11:14.637Z,100.00
2023-02-19T17:13:42.145Z,100.00
2023-02-19T17:16:22.397Z,100.00
2023-02-19T17:18:49.478Z,100.00
2023-02-19T17:21:27.433Z,100.00
2023-02-19T17:23:54.181Z,100.00
2023-02-19T17:26:26.793Z,100.00
2023-02-19T17:28:53.322Z,100.00
2023-02-19T17:31:19.793Z,100.00
2023-02-19T17:33:46.948Z,100.00
2023-02-19T17:36:19.040Z,100.00
2023-02-19T17:38:45.897Z,100.00
2023-02-19T17:41:12.657Z,100.00
2023-02-19T17:43:39.235Z,100.00
2023-02-19T17:46:15.103Z,100.00
2023-02-19T17:48:41.576Z,100.00
2023-02-19T17:51:08.220Z,100.00
2023-02-19T17:53:34.602Z,100.00
2023-02-19T17:56:00.983Z,100.00
2023-02-19T17:58:27.518Z,100.00
2023-02-19T18:00:54.191Z,100.00
2023-02-19T18:03:20.700Z,100.00
2023-02-19T18:05:47.336Z,100.00
2023-02-19T18:08:14.108Z,100.00
2023-02-19T18:10:40.659Z,100.00
2023-02-19T18:13:07.157Z,100.00
2023-02-19T18:15:33.696Z,100.00
2023-02-19T18:18:00.114Z,100.00
2023-02-19T18:20:28.326Z,99.62
2023-02-19T18:22:56.009Z,99.62
2023-02-19T18:25:22.882Z,99.44
2023-02-19T18:27:50.116Z,99.37
2023-02-19T18:30:19.086Z,98.81
2023-02-19T18:32:49.677Z,98.99
2023-02-19T18:35:17.832Z,98.89
2023-02-19T18:37:44.491Z,99.05
2023-02-19T18:40:11.489Z,98.91
2023-02-19T18:42:38.165Z,98.97
2023-02-19T18:45:04.867Z,98.93
2023-02-19T18:47:31.329Z,98.89
2023-02-19T18:49:59.377Z,98.87
2023-02-19T18:52:27.041Z,98.75
2023-02-19T18:54:55.157Z,99.18
2023-02-19T18:57:23.251Z,99.14
2023-02-19T18:59:50.430Z,99.22
2023-02-19T19:02:17.150Z,99.12
2023-02-19T19:04:43.738Z,99.40
2023-02-19T19:07:10.804Z,99.34
2023-02-19T19:09:37.246Z,99.60
2023-02-19T19:12:04.215Z,99.93
2023-02-19T19:14:30.662Z,100.00
2023-02-19T19:16:57.196Z,100.00
2023-02-19T19:19:23.712Z,100.00
2023-02-19T19:21:53.467Z,100.00
2023-02-19T19:24:21.096Z,100.00
2023-02-19T19:26:48.516Z,100.00
2023-02-19T19:29:16.517Z,100.00
2023-02-19T19:31:43.915Z,100.00
2023-02-19T19:34:11.337Z,100.00
2023-02-19T19:36:37.772Z,100.00
2023-02-19T19:39:04.663Z,100.00
2023-02-19T19:41:31.428Z,100.00
2023-02-19T19:43:58.010Z,100.00
2023-02-19T19:46:24.470Z,100.00
2023-02-19T19:48:52.791Z,100.00
2023-02-19T19:51:19.317Z,100.00
2023-02-19T19:53:49.739Z,100.00
2023-02-19T19:56:17.527Z,100.00
2023-02-19T19:58:43.982Z,100.00
2023-02-19T20:01:10.864Z,100.00
2023-02-19T20:03:37.967Z,100.00
2023-02-19T20:06:04.739Z,100.00
2023-02-19T20:08:31.178Z,100.00
2023-02-19T20:10:57.609Z,100.00
2023-02-19T20:13:26.374Z,100.00
2023-02-19T20:15:52.925Z,100.00
2023-02-19T20:18:21.412Z,100.00
2023-02-19T20:20:47.965Z,100.00
2023-02-19T20:23:14.402Z,100.00
2023-02-19T20:25:40.832Z,100.00
2023-02-19T20:28:07.502Z,100.00
2023-02-19T20:30:34.773Z,100.00
2023-02-19T20:33:01.218Z,100.00
2023-02-19T20:35:29.775Z,100.00
2023-02-19T20:37:56.172Z,100.00
2023-02-19T20:40:27.701Z,100.00
2023-02-19T20:42:54.457Z,100.00
2023-02-19T20:45:21.389Z,100.00
2023-02-19T20:47:48.030Z,100.00
2023-02-19T20:50:17.502Z,100.00
2023-02-19T20:52:44.610Z,100.00
2023-02-19T20:55:11.482Z,100.00
2023-02-19T20:57:38.126Z,100.00
2023-02-19T21:00:05.762Z,100.00
2023-02-19T21:02:32.427Z,100.00
2023-02-19T21:04:59.729Z,100.00
2023-02-19T21:07:26.463Z,100.00
2023-02-19T21:09:53.268Z,100.00
2023-02-19T21:12:21.802Z,100.00
2023-02-19T21:14:48.291Z,100.00
2023-02-19T21:17:15.070Z,100.00
2023-02-19T21:19:41.658Z,100.00
2023-02-19T21:22:08.181Z,100.00
2023-02-19T21:24:34.705Z,100.00
2023-02-19T21:27:01.190Z,100.00
2023-02-19T21:29:27.735Z,100.00
2023-02-19T21:31:56.697Z,100.00
2023-02-19T21:34:26.666Z,100.00
2023-02-19T21:36:54.332Z,100.00
2023-02-19T21:39:23.904Z,100.00
2023-02-19T21:41:50.534Z,100.00
2023-02-19T21:44:17.360Z,100.00
2023-02-19T21:46:43.999Z,100.00
2023-02-19T21:49:11.485Z,100.00
2023-02-19T21:51:40.427Z,100.00
2023-02-19T21:54:08.039Z,100.00
2023-02-19T21:56:36.545Z,100.00
2023-02-19T21:59:03.545Z,100.00
2023-02-19T22:01:33.758Z,100.00
2023-02-19T22:04:00.887Z,100.00
2023-02-19T22:06:29.589Z,100.00
2023-02-19T22:08:56.958Z,100.00
2023-02-19T22:11:23.466Z,100.00
2023-02-19T22:13:50.321Z,100.00
2023-02-19T22:16:17.489Z,100.00
2023-02-19T22:18:55.110Z,100.00
2023-02-19T22:21:23.250Z,100.00
2023-02-19T22:23:51.779Z,100.00
2023-02-19T22:26:30.823Z,100.00
2023-02-19T22:28:58.231Z,100.00
2023-02-19T22:31:26.635Z,100.00
2023-02-19T22:33:53.833Z,100.00
2023-02-19T22:36:26.210Z,100.00
2023-02-19T22:38:53.029Z,100.00
2023-02-19T22:41:21.074Z,100.00
2023-02-19T22:43:47.848Z,100.00
2023-02-19T22:46:17.806Z,100.00
2023-02-19T22:48:44.296Z,100.00
2023-02-19T22:51:13.193Z,100.00
2023-02-19T22:53:56.946Z,100.00
2023-02-19T22:56:26.300Z,100.00
2023-02-19T22:58:54.494Z,100.00
2023-02-19T23:01:21.236Z,100.00
2023-02-19T23:03:58.916Z,100.00
2023-02-19T23:06:28.926Z,100.00
2023-02-19T23:08:58.192Z,100.00
2023-02-19T23:11:28.003Z,100.00
2023-02-19T23:13:54.739Z,100.00
2023-02-19T23:16:21.581Z,100.00
2023-02-19T23:18:48.715Z,100.00
2023-02-19T23:21:15.865Z,100.00
2023-02-19T23:23:43.309Z,100.00
2023-02-19T23:26:10.572Z,100.00
2023-02-19T23:28:39.379Z,100.00
2023-02-19T23:31:06.521Z,100.00
2023-02-19T23:33:33.419Z,100.00
2023-02-19T23:35:59.927Z,100.00
2023-02-19T23:38:26.414Z,100.00
2023-02-19T23:40:52.830Z,100.00
2023-02-19T23:43:19.811Z,100.00
2023-02-19T23:45:46.590Z,100.00
2023-02-19T23:48:13.047Z,100.00
2023-02-19T23:50:39.488Z,100.00
2023-02-19T23:53:06.975Z,100.00
2023-02-19T23:55:33.349Z,100.00
2023-02-19T23:57:59.791Z,100.00
